Time;durP1;ratioP1;P1;durP2;ratioP2;P2;SDS_P1;SDS_P2;PMS_P1;PMS_P2;Temp;Humidity;BMP_temperature;BMP_pressure;BME280_temperature;BME280_humidity;BME280_pressure;Samples;Min_cycle;Max_cycle;Signal;HPM_P1;HPM_P2
2021/01/05 00:00:55;;;;;;;10.73;9.63;;;;;;;;;;5118637;28;20023;-87
2021/01/05 00:03:21;;;;;;;10.57;9.52;;;;;;;;;;5105621;28;20032;-87
2021/01/05 00:05:47;;;;;;;11.18;10.00;;;;;;;;;;5105648;28;20028;-86
2021/01/05 00:08:13;;;;;;;11.73;10.13;;;;;;;;;;5112383;28;20032;-86
2021/01/05 00:10:39;;;;;;;11.57;10.48;;;;;;;;;;5093713;28;20032;-86
2021/01/05 00:13:05;;;;;;;11.48;10.38;;;;;;;;;;5102330;28;20115;-89
2021/01/05 00:15:32;;;;;;;11.63;10.18;;;;;;;;;;5102581;28;20021;-87
2021/01/05 00:17:58;;;;;;;12.52;11.05;;;;;;;;;;5102404;28;20044;-87
2021/01/05 00:20:25;;;;;;;11.40;10.30;;;;;;;;;;5101662;28;20045;-88
2021/01/05 00:22:51;;;;;;;11.60;10.38;;;;;;;;;;5097990;28;20044;-88
2021/01/05 00:25:19;;;;;;;12.73;10.98;;;;;;;;;;5114048;28;20016;-86
2021/01/05 00:27:45;;;;;;;15.20;10.65;;;;;;;;;;5102276;28;20016;-86
2021/01/05 00:30:13;;;;;;;12.93;10.35;;;;;;;;;;5101810;28;20040;-88
2021/01/05 00:32:43;;;;;;;11.57;10.38;;;;;;;;;;5081418;28;20036;-88
2021/01/05 00:35:10;;;;;;;12.77;11.18;;;;;;;;;;5080831;28;20047;-87
2021/01/05 00:37:36;;;;;;;14.02;12.15;;;;;;;;;;5080071;28;20043;-87
2021/01/05 00:40:03;;;;;;;13.35;11.95;;;;;;;;;;5068884;28;20029;-88
2021/01/05 00:42:29;;;;;;;11.55;10.23;;;;;;;;;;5084506;28;20024;-87
2021/01/05 00:44:57;;;;;;;13.25;11.82;;;;;;;;;;5065821;28;20078;-88
2021/01/05 00:47:24;;;;;;;13.55;10.82;;;;;;;;;;5066863;28;20035;-88
2021/01/05 00:49:50;;;;;;;14.77;10.60;;;;;;;;;;5065621;28;20116;-88
2021/01/05 00:52:16;;;;;;;14.07;12.15;;;;;;;;;;5065282;28;20432;-88
2021/01/05 00:54:42;;;;;;;13.02;11.60;;;;;;;;;;5066805;28;20079;-87
2021/01/05 00:57:09;;;;;;;13.05;11.02;;;;;;;;;;5062564;28;20068;-88
2021/01/05 00:59:36;;;;;;;13.43;11.70;;;;;;;;;;5062972;28;20067;-88
2021/01/05 01:02:02;;;;;;;13.80;11.57;;;;;;;;;;5062519;28;20068;-88
2021/01/05 01:04:28;;;;;;;13.95;11.77;;;;;;;;;;5062817;28;20028;-86
2021/01/05 01:06:55;;;;;;;12.48;11.10;;;;;;;;;;5062580;28;20025;-88
2021/01/05 01:09:21;;;;;;;14.70;11.85;;;;;;;;;;5061790;28;20049;-88
2021/01/05 01:12:06;;;;;;;12.18;10.88;;;;;;;;;;5062619;28;20028;-88
2021/01/05 01:14:33;;;;;;;14.15;11.85;;;;;;;;;;5061764;28;20185;-90
2021/01/05 01:16:59;;;;;;;12.43;11.15;;;;;;;;;;5079377;28;20036;-88
2021/01/05 01:19:25;;;;;;;13.98;11.82;;;;;;;;;;5079314;28;20456;-86
2021/01/05 01:21:52;;;;;;;14.00;11.65;;;;;;;;;;5062268;28;20028;-88
2021/01/05 01:24:18;;;;;;;13.65;11.48;;;;;;;;;;5079536;28;20081;-87
2021/01/05 01:26:44;;;;;;;14.45;12.35;;;;;;;;;;5062085;28;20040;-87
2021/01/05 01:29:14;;;;;;;13.68;11.68;;;;;;;;;;5079278;28;20427;-87
2021/01/05 01:31:40;;;;;;;15.38;12.55;;;;;;;;;;5062000;28;20038;-88
2021/01/05 01:34:06;;;;;;;14.32;12.35;;;;;;;;;;5061629;28;20421;-89
2021/01/05 01:36:32;;;;;;;15.40;12.95;;;;;;;;;;5061993;28;20082;-86
2021/01/05 01:38:58;;;;;;;16.42;13.23;;;;;;;;;;5061620;28;20347;-88
2021/01/05 01:41:24;;;;;;;15.13;12.45;;;;;;;;;;5061139;28;20085;-87
2021/01/05 01:43:50;;;;;;;13.73;11.90;;;;;;;;;;5061874;28;20123;-88
2021/01/05 01:46:16;;;;;;;15.52;13.02;;;;;;;;;;5062032;28;20121;-87
2021/01/05 01:48:43;;;;;;;14.88;12.52;;;;;;;;;;5079149;28;20028;-88
2021/01/05 01:51:10;;;;;;;15.40;12.93;;;;;;;;;;5061651;28;20035;-88
2021/01/05 01:53:55;;;;;;;14.48;12.00;;;;;;;;;;5062314;28;20326;-88
2021/01/05 01:56:33;;;;;;;15.80;13.55;;;;;;;;;;5061673;28;20040;-87
2021/01/05 01:59:05;;;;;;;15.13;12.50;;;;;;;;;;5061455;28;20056;-87
2021/01/05 02:01:50;;;;;;;16.05;13.40;;;;;;;;;;5061152;28;20433;-86
2021/01/05 02:04:25;;;;;;;17.55;12.40;;;;;;;;;;5060621;28;20028;-88
2021/01/05 02:07:10;;;;;;;16.27;12.63;;;;;;;;;;5061320;28;20110;-88
2021/01/05 02:09:53;;;;;;;15.13;12.95;;;;;;;;;;5061837;28;20028;-87
2021/01/05 02:12:22;;;;;;;16.02;12.55;;;;;;;;;;5061443;28;20098;-89
2021/01/05 02:15:07;;;;;;;16.80;13.73;;;;;;;;;;5078484;28;20118;-87
2021/01/05 02:17:36;;;;;;;14.40;12.15;;;;;;;;;;5061489;28;20047;-87
2021/01/05 02:20:12;;;;;;;16.35;13.02;;;;;;;;;;5078195;28;20028;-89
2021/01/05 02:22:49;;;;;;;17.13;13.98;;;;;;;;;;5061509;28;20043;-87
2021/01/05 02:25:21;;;;;;;15.48;12.98;;;;;;;;;;5079219;28;20032;-90
2021/01/05 02:27:55;;;;;;;16.55;13.25;;;;;;;;;;5078412;28;20032;-87
2021/01/05 02:30:24;;;;;;;16.45;13.80;;;;;;;;;;5060982;28;20058;-87
2021/01/05 02:32:54;;;;;;;18.08;14.02;;;;;;;;;;5060517;28;20092;-88
2021/01/05 02:35:27;;;;;;;17.88;14.75;;;;;;;;;;5078057;28;20025;-88
2021/01/05 02:38:03;;;;;;;19.42;15.07;;;;;;;;;;5077506;28;20033;-88
2021/01/05 02:40:37;;;;;;;22.80;15.82;;;;;;;;;;5077864;28;20112;-88
2021/01/05 02:43:06;;;;;;;18.67;15.52;;;;;;;;;;5060566;28;20025;-87
2021/01/05 02:46:02;;;;;;;19.98;15.85;;;;;;;;;;5060318;28;20029;-88
2021/01/05 02:48:28;;;;;;;20.73;15.30;;;;;;;;;;5061234;28;20209;-88
2021/01/05 02:51:09;;;;;;;21.13;15.68;;;;;;;;;;5060591;28;20032;-88
2021/01/05 02:53:49;;;;;;;18.70;15.27;;;;;;;;;;5061158;28;20028;-88
2021/01/05 02:56:15;;;;;;;22.33;16.70;;;;;;;;;;5060543;28;20037;-87
2021/01/05 02:58:57;;;;;;;21.27;16.35;;;;;;;;;;5077814;28;20045;-86
2021/01/05 03:01:30;;;;;;;20.85;16.23;;;;;;;;;;5060276;28;20127;-87
2021/01/05 03:03:57;;;;;;;21.13;16.27;;;;;;;;;;5060494;28;20033;-88
2021/01/05 03:06:23;;;;;;;21.25;16.73;;;;;;;;;;5078307;28;20032;-88
2021/01/05 03:09:08;;;;;;;22.30;17.35;;;;;;;;;;5060005;28;20083;-86
2021/01/05 03:11:54;;;;;;;21.05;15.85;;;;;;;;;;5060199;28;20032;-89
2021/01/05 03:14:36;;;;;;;23.10;17.23;;;;;;;;;;5043260;28;20086;-86
2021/01/05 03:17:11;;;;;;;23.02;16.48;;;;;;;;;;5063496;28;20036;-88
2021/01/05 03:19:52;;;;;;;23.80;17.88;;;;;;;;;;5063529;28;20068;-87
2021/01/05 03:22:21;;;;;;;23.80;17.92;;;;;;;;;;5063676;28;20037;-87
2021/01/05 03:24:48;;;;;;;24.40;18.23;;;;;;;;;;5063120;28;20156;-86
2021/01/05 03:27:14;;;;;;;22.23;17.52;;;;;;;;;;5081268;28;20035;-89
2021/01/05 03:29:41;;;;;;;21.30;16.00;;;;;;;;;;5063901;28;20036;-87
2021/01/05 03:32:08;;;;;;;23.58;17.42;;;;;;;;;;5081334;28;20105;-85
2021/01/05 03:34:35;;;;;;;22.52;16.35;;;;;;;;;;5081107;28;20031;-88
2021/01/05 03:37:01;;;;;;;21.65;16.10;;;;;;;;;;5080859;28;20115;-88
2021/01/05 03:39:27;;;;;;;22.17;17.88;;;;;;;;;;5062802;28;20028;-87
2021/01/05 03:41:53;;;;;;;23.73;16.98;;;;;;;;;;5062950;28;20063;-86
2021/01/05 03:44:20;;;;;;;21.48;17.27;;;;;;;;;;5063219;28;20028;-88
2021/01/05 03:46:46;;;;;;;23.02;17.60;;;;;;;;;;5063122;28;20032;-88
2021/01/05 03:49:12;;;;;;;21.58;16.58;;;;;;;;;;5063805;28;20040;-87
2021/01/05 03:51:38;;;;;;;20.17;16.70;;;;;;;;;;5062587;28;20036;-87
2021/01/05 03:54:04;;;;;;;21.58;16.42;;;;;;;;;;5063298;28;20078;-88
2021/01/05 03:56:30;;;;;;;23.75;15.80;;;;;;;;;;5063369;28;20032;-87
2021/01/05 03:58:56;;;;;;;20.10;16.45;;;;;;;;;;5080029;28;20046;-87
2021/01/05 04:01:22;;;;;;;21.20;16.25;;;;;;;;;;5080580;28;20348;-87
2021/01/05 04:03:48;;;;;;;21.45;16.75;;;;;;;;;;5063145;28;20039;-86
2021/01/05 04:06:14;;;;;;;20.63;15.80;;;;;;;;;;5062952;28;20055;-87
2021/01/05 04:08:40;;;;;;;24.83;17.10;;;;;;;;;;5061862;28;20404;-87
2021/01/05 04:11:06;;;;;;;24.38;17.13;;;;;;;;;;5062715;28;20016;-87
2021/01/05 04:13:32;;;;;;;21.90;15.30;;;;;;;;;;5063214;28;20032;-87
2021/01/05 04:15:58;;;;;;;19.30;14.93;;;;;;;;;;5062540;28;20357;-87
2021/01/05 04:18:24;;;;;;;21.15;15.35;;;;;;;;;;5080951;28;20483;-88
2021/01/05 04:20:50;;;;;;;19.83;15.15;;;;;;;;;;5062631;28;20024;-87
2021/01/05 04:23:16;;;;;;;18.17;14.55;;;;;;;;;;5062654;28;20029;-86
2021/01/05 04:25:43;;;;;;;19.45;14.65;;;;;;;;;;5062871;28;20028;-87
2021/01/05 04:28:09;;;;;;;20.33;16.63;;;;;;;;;;5062558;28;20034;-89
2021/01/05 04:30:36;;;;;;;19.83;14.85;;;;;;;;;;5063096;28;20028;-85
2021/01/05 04:33:04;;;;;;;20.85;15.60;;;;;;;;;;5062246;28;20063;-87
2021/01/05 04:35:30;;;;;;;19.73;16.35;;;;;;;;;;5079822;28;20040;-88
2021/01/05 04:37:57;;;;;;;18.65;14.35;;;;;;;;;;5062727;28;20037;-86
2021/01/05 04:40:26;;;;;;;20.10;16.13;;;;;;;;;;5079957;28;20032;-85
2021/01/05 04:43:05;;;;;;;22.23;14.27;;;;;;;;;;5061698;28;20069;-87
2021/01/05 04:45:31;;;;;;;21.13;15.50;;;;;;;;;;5080686;28;20028;-88
2021/01/05 04:48:10;;;;;;;21.52;16.27;;;;;;;;;;5062398;28;20127;-88
2021/01/05 04:50:37;;;;;;;23.52;15.38;;;;;;;;;;5063494;28;20029;-89
2021/01/05 04:53:12;;;;;;;19.63;14.32;;;;;;;;;;5062408;28;20196;-87
2021/01/05 04:55:41;;;;;;;19.92;15.13;;;;;;;;;;5062572;28;20451;-85
2021/01/05 04:58:07;;;;;;;;;;;;;;;;;;5081107;28;20047;-84
2021/01/05 05:00:35;;;;;;;17.92;14.30;;;;;;;;;;5062926;28;19912;-86
2021/01/05 05:03:24;;;;;;;18.98;14.95;;;;;;;;;;5080111;28;20115;-87
2021/01/05 05:05:54;;;;;;;20.67;14.50;;;;;;;;;;5017829;28;20044;-87
2021/01/05 05:08:39;;;;;;;19.70;14.18;;;;;;;;;;5061680;28;20047;-87
2021/01/05 05:11:13;;;;;;;19.83;14.93;;;;;;;;;;5062435;28;20040;-87
2021/01/05 05:14:00;;;;;;;19.52;14.75;;;;;;;;;;5074699;28;20032;-87
2021/01/05 05:16:37;;;;;;;22.77;15.85;;;;;;;;;;5099317;28;20042;-88
2021/01/05 05:19:09;;;;;;;21.10;15.15;;;;;;;;;;5098456;28;20070;-88
2021/01/05 05:21:52;;;;;;;25.80;16.58;;;;;;;;;;5080047;28;20024;-88
2021/01/05 05:24:18;;;;;;;21.90;14.25;;;;;;;;;;5080584;28;20565;-88
2021/01/05 05:26:59;;;;;;;21.55;15.00;;;;;;;;;;5086774;28;20025;-88
2021/01/05 05:29:41;;;;;;;23.70;15.82;;;;;;;;;;5062453;28;20343;-88
2021/01/05 05:32:19;;;;;;;21.52;16.05;;;;;;;;;;5080257;28;20028;-88
2021/01/05 05:35:00;;;;;;;21.52;16.33;;;;;;;;;;5062343;28;20028;-88
2021/01/05 05:37:41;;;;;;;23.95;16.85;;;;;;;;;;5061555;28;20440;-87
2021/01/05 05:40:07;;;;;;;22.25;15.48;;;;;;;;;;5096629;28;20085;-86
2021/01/05 05:42:36;;;;;;;24.23;17.52;;;;;;;;;;5081700;28;20043;-87
2021/01/05 05:45:08;;;;;;;24.27;16.17;;;;;;;;;;5082303;28;20024;-86
2021/01/05 05:47:47;;;;;;;26.42;16.15;;;;;;;;;;5097794;28;20028;-88
2021/01/05 05:50:14;;;;;;;21.85;16.05;;;;;;;;;;5097960;28;20031;-87
2021/01/05 05:52:45;;;;;;;23.70;17.55;;;;;;;;;;5080848;28;20134;-87
2021/01/05 05:55:30;;;;;;;21.83;16.33;;;;;;;;;;5081426;28;20127;-87
2021/01/05 05:58:00;;;;;;;22.48;15.23;;;;;;;;;;5080621;28;20351;-88
2021/01/05 06:00:40;;;;;;;21.05;15.85;;;;;;;;;;5081143;28;20024;-88
2021/01/05 06:03:07;;;;;;;23.27;16.38;;;;;;;;;;5081415;28;20039;-87
2021/01/05 06:05:37;;;;;;;25.80;17.15;;;;;;;;;;5081321;28;20129;-86
2021/01/05 06:08:05;;;;;;;24.00;15.90;;;;;;;;;;5080577;28;20047;-89
2021/01/05 06:10:31;;;;;;;23.50;16.17;;;;;;;;;;5097784;28;20036;-89
2021/01/05 06:12:57;;;;;;;24.25;16.58;;;;;;;;;;5079243;28;20039;-87
2021/01/05 06:15:23;;;;;;;27.42;16.73;;;;;;;;;;5078111;28;20026;-87
2021/01/05 06:17:50;;;;;;;27.08;17.52;;;;;;;;;;5079578;28;20066;-87
2021/01/05 06:20:17;;;;;;;24.17;16.52;;;;;;;;;;5079363;28;20340;-89
2021/01/05 06:22:43;;;;;;;24.13;16.35;;;;;;;;;;5079873;28;20032;-88
2021/01/05 06:25:09;;;;;;;23.73;16.55;;;;;;;;;;5080242;28;20028;-90
2021/01/05 06:27:36;;;;;;;27.15;17.52;;;;;;;;;;5080116;28;20035;-88
2021/01/05 06:30:04;;;;;;;27.98;19.15;;;;;;;;;;5089624;28;20031;-89
2021/01/05 06:32:30;;;;;;;24.67;14.85;;;;;;;;;;5099089;28;20395;-87
2021/01/05 06:34:56;;;;;;;26.60;18.08;;;;;;;;;;5080637;28;20108;-87
2021/01/05 06:37:22;;;;;;;24.50;17.27;;;;;;;;;;5098669;28;20046;-88
2021/01/05 06:39:48;;;;;;;26.60;17.52;;;;;;;;;;5080417;28;20028;-87
2021/01/05 06:42:15;;;;;;;29.20;17.27;;;;;;;;;;5097514;28;20016;-87
2021/01/05 06:44:42;;;;;;;30.75;18.83;;;;;;;;;;5098225;28;20012;-87
2021/01/05 06:47:08;;;;;;;25.98;16.55;;;;;;;;;;5080683;28;20038;-87
2021/01/05 06:49:34;;;;;;;23.77;16.48;;;;;;;;;;5097568;28;20052;-88
2021/01/05 06:52:00;;;;;;;25.15;16.17;;;;;;;;;;5080015;28;20032;-86
2021/01/05 06:54:26;;;;;;;28.05;17.30;;;;;;;;;;5079632;28;20039;-86
2021/01/05 06:56:56;;;;;;;26.30;17.60;;;;;;;;;;5078635;28;20028;-87
2021/01/05 06:59:22;;;;;;;23.55;15.88;;;;;;;;;;5077101;28;20028;-88
2021/01/05 07:01:50;;;;;;;25.17;17.02;;;;;;;;;;5078987;28;20024;-87
2021/01/05 07:04:16;;;;;;;27.55;17.75;;;;;;;;;;5094880;28;20124;-88
2021/01/05 07:06:42;;;;;;;25.70;17.00;;;;;;;;;;5076757;28;20036;-87
2021/01/05 07:09:09;;;;;;;27.05;17.15;;;;;;;;;;5078769;28;20358;-88
2021/01/05 07:11:35;;;;;;;31.40;18.25;;;;;;;;;;5076382;28;20039;-86
2021/01/05 07:14:01;;;;;;;25.65;16.65;;;;;;;;;;5075925;28;20024;-88
2021/01/05 07:16:27;;;;;;;27.27;16.73;;;;;;;;;;5078921;28;20024;-89
2021/01/05 07:18:53;;;;;;;24.77;15.65;;;;;;;;;;5076980;28;20036;-89
2021/01/05 07:21:19;;;;;;;25.67;15.93;;;;;;;;;;5075271;28;20335;-90
2021/01/05 07:23:45;;;;;;;26.02;16.50;;;;;;;;;;5076985;28;20028;-85
2021/01/05 07:26:11;;;;;;;25.00;16.13;;;;;;;;;;5074976;28;20042;-87
2021/01/05 07:28:41;;;;;;;24.85;15.73;;;;;;;;;;5078040;28;20062;-90
2021/01/05 07:31:07;;;;;;;;;;;;;;;;;;5078918;28;20027;-87
2021/01/05 07:33:33;;;;;;;28.45;17.25;;;;;;;;;;5096613;28;19912;-88
2021/01/05 07:36:03;;;;;;;24.63;15.73;;;;;;;;;;5075686;28;20028;-86
2021/01/05 07:38:29;;;;;;;23.30;15.40;;;;;;;;;;5078461;28;20056;-87
2021/01/05 07:40:55;;;;;;;23.23;15.43;;;;;;;;;;5096721;28;20020;-88
2021/01/05 07:43:21;;;;;;;24.42;15.32;;;;;;;;;;5095344;28;20035;-87
2021/01/05 07:45:47;;;;;;;26.30;15.60;;;;;;;;;;5080156;28;20443;-87
2021/01/05 07:48:13;;;;;;;25.65;15.75;;;;;;;;;;5078106;28;20035;-85
2021/01/05 07:50:39;;;;;;;25.42;15.75;;;;;;;;;;5078555;28;20039;-87
2021/01/05 07:53:05;;;;;;;27.15;14.65;;;;;;;;;;5096360;28;20051;-87
2021/01/05 07:55:33;;;;;;;24.65;15.82;;;;;;;;;;5078818;28;20028;-87
2021/01/05 07:57:59;;;;;;;26.15;15.98;;;;;;;;;;5079783;28;20024;-87
2021/01/05 08:00:27;;;;;;;23.63;13.95;;;;;;;;;;5097376;28;20054;-87
2021/01/05 08:02:54;;;;;;;23.80;15.18;;;;;;;;;;5081572;28;20020;-86
2021/01/05 08:05:25;;;;;;;22.98;15.10;;;;;;;;;;5092362;28;20029;-87
2021/01/05 08:07:51;;;;;;;24.23;13.73;;;;;;;;;;5088025;28;20460;-87
2021/01/05 08:10:19;;;;;;;24.33;14.82;;;;;;;;;;5098523;28;20312;-89
2021/01/05 08:12:47;;;;;;;23.00;14.70;;;;;;;;;;5080992;28;20416;-86
2021/01/05 08:15:14;;;;;;;25.13;15.18;;;;;;;;;;5099143;28;20024;-88
2021/01/05 08:17:40;;;;;;;24.52;14.55;;;;;;;;;;5080957;28;20040;-89
2021/01/05 08:20:06;;;;;;;29.00;16.48;;;;;;;;;;5078473;28;20332;-87
2021/01/05 08:22:32;;;;;;;25.80;15.88;;;;;;;;;;5098663;28;20044;-87
2021/01/05 08:24:58;;;;;;;23.38;15.05;;;;;;;;;;5059686;28;20043;-87
2021/01/05 08:27:24;;;;;;;25.77;15.30;;;;;;;;;;5080358;28;20257;-88
2021/01/05 08:29:51;;;;;;;24.67;14.82;;;;;;;;;;5095420;28;20020;-88
2021/01/05 08:32:17;;;;;;;28.27;17.50;;;;;;;;;;5098083;28;20024;-87
2021/01/05 08:34:46;;;;;;;22.83;14.88;;;;;;;;;;5079111;28;20039;-88
2021/01/05 08:37:12;;;;;;;27.13;15.05;;;;;;;;;;5077413;28;20039;-89
2021/01/05 08:39:38;;;;;;;25.27;14.82;;;;;;;;;;5079147;28;20034;-88
2021/01/05 08:42:05;;;;;;;27.00;15.43;;;;;;;;;;5078961;28;20066;-88
2021/01/05 08:44:31;;;;;;;25.05;15.45;;;;;;;;;;5096721;28;20047;-88
2021/01/05 08:46:59;;;;;;;25.80;15.23;;;;;;;;;;5079504;28;20088;-87
2021/01/05 08:49:25;;;;;;;27.15;15.98;;;;;;;;;;5078866;28;20381;-87
2021/01/05 08:51:52;;;;;;;23.23;15.23;;;;;;;;;;5079001;28;20109;-87
2021/01/05 08:54:19;;;;;;;26.77;16.48;;;;;;;;;;5078314;28;20027;-86
2021/01/05 08:56:45;;;;;;;27.65;15.55;;;;;;;;;;5097382;28;20059;-87
2021/01/05 08:59:11;;;;;;;24.42;15.00;;;;;;;;;;5078436;28;20039;-89
2021/01/05 09:01:37;;;;;;;24.45;15.90;;;;;;;;;;5080609;28;20492;-89
2021/01/05 09:04:03;;;;;;;25.20;15.43;;;;;;;;;;5078927;28;20031;-88
2021/01/05 09:06:29;;;;;;;23.13;14.85;;;;;;;;;;5080410;28;20158;-85
2021/01/05 09:08:56;;;;;;;24.13;16.02;;;;;;;;;;5098992;28;20031;-87
2021/01/05 09:11:26;;;;;;;24.48;15.13;;;;;;;;;;5098660;28;20024;-88
2021/01/05 09:13:52;;;;;;;26.25;15.13;;;;;;;;;;5079474;28;20024;-85
2021/01/05 09:16:22;;;;;;;27.98;15.50;;;;;;;;;;5080894;28;20047;-85
2021/01/05 09:18:48;;;;;;;25.98;15.98;;;;;;;;;;5080959;28;20416;-88
2021/01/05 09:21:15;;;;;;;28.40;16.40;;;;;;;;;;5098341;28;20024;-88
2021/01/05 09:23:42;;;;;;;27.38;16.52;;;;;;;;;;5098244;28;20127;-85
2021/01/05 09:26:16;;;;;;;28.95;16.02;;;;;;;;;;5079927;28;20058;-88
2021/01/05 09:28:42;;;;;;;26.63;17.42;;;;;;;;;;5098686;28;20027;-85
2021/01/05 09:31:08;;;;;;;24.33;14.38;;;;;;;;;;5080503;28;20130;-86
2021/01/05 09:33:37;;;;;;;23.15;15.10;;;;;;;;;;5079079;28;20035;-86
2021/01/05 09:36:03;;;;;;;24.25;15.88;;;;;;;;;;5075548;28;20028;-88
2021/01/05 09:38:30;;;;;;;25.70;15.20;;;;;;;;;;5095159;28;20040;-86
2021/01/05 09:40:56;;;;;;;25.40;14.40;;;;;;;;;;5077763;28;20056;-88
2021/01/05 09:43:22;;;;;;;24.33;14.85;;;;;;;;;;5078487;28;20113;-87
2021/01/05 09:45:48;;;;;;;24.40;14.70;;;;;;;;;;5097860;28;20431;-89
2021/01/05 09:48:15;;;;;;;25.52;15.38;;;;;;;;;;5078750;28;20035;-85
2021/01/05 09:50:43;;;;;;;26.10;15.75;;;;;;;;;;5077893;28;20423;-86
2021/01/05 09:53:10;;;;;;;29.08;14.93;;;;;;;;;;5095760;28;20040;-85
2021/01/05 09:55:37;;;;;;;27.55;14.95;;;;;;;;;;5078658;28;20031;-89
2021/01/05 09:58:03;;;;;;;21.85;13.73;;;;;;;;;;5079303;28;20046;-86
2021/01/05 10:00:29;;;;;;;23.40;14.45;;;;;;;;;;5079145;28;20032;-86
2021/01/05 10:02:55;;;;;;;24.25;14.93;;;;;;;;;;5078882;28;20028;-87
2021/01/05 10:05:22;;;;;;;29.58;14.98;;;;;;;;;;5078381;28;20031;-87
2021/01/05 10:07:48;;;;;;;27.38;15.30;;;;;;;;;;5093386;28;20039;-86
2021/01/05 10:10:17;;;;;;;23.40;13.88;;;;;;;;;;5080613;28;20028;-86
2021/01/05 10:12:43;;;;;;;24.55;15.32;;;;;;;;;;5082066;28;20047;-87
2021/01/05 10:15:10;;;;;;;25.23;14.90;;;;;;;;;;5083228;28;20468;-88
2021/01/05 10:17:37;;;;;;;27.40;14.85;;;;;;;;;;5081431;28;20044;-87
2021/01/05 10:20:04;;;;;;;24.60;15.20;;;;;;;;;;5084731;28;20016;-87
2021/01/05 10:22:31;;;;;;;22.45;14.75;;;;;;;;;;5090672;28;20078;-86
2021/01/05 10:24:57;;;;;;;22.42;13.38;;;;;;;;;;5094001;28;20027;-85
2021/01/05 10:27:26;;;;;;;23.30;14.52;;;;;;;;;;5093108;28;20031;-86
2021/01/05 10:29:55;;;;;;;24.83;14.68;;;;;;;;;;5094913;28;20032;-85
2021/01/05 10:32:21;;;;;;;27.77;15.73;;;;;;;;;;5097655;28;20032;-86
2021/01/05 10:34:48;;;;;;;25.50;15.15;;;;;;;;;;5116873;28;20019;-84
2021/01/05 10:37:14;;;;;;;23.17;14.30;;;;;;;;;;5120968;27;20024;-88
2021/01/05 10:39:40;;;;;;;24.85;14.68;;;;;;;;;;5117217;28;20043;-89
2021/01/05 10:42:06;;;;;;;28.45;14.88;;;;;;;;;;5099285;28;20016;-87
2021/01/05 10:44:33;;;;;;;24.55;14.32;;;;;;;;;;5099575;28;20000;-85
2021/01/05 10:46:59;;;;;;;23.65;14.35;;;;;;;;;;5115168;28;20469;-88
2021/01/05 10:49:26;;;;;;;23.98;14.57;;;;;;;;;;5095645;28;20039;-86
2021/01/05 10:51:52;;;;;;;25.58;15.20;;;;;;;;;;5093736;28;20054;-87
2021/01/05 10:54:20;;;;;;;25.50;14.27;;;;;;;;;;5087639;28;20028;-88
2021/01/05 10:56:46;;;;;;;23.17;13.82;;;;;;;;;;5091156;28;20100;-84
2021/01/05 10:59:15;;;;;;;29.85;16.13;;;;;;;;;;5090363;28;20044;-85
2021/01/05 11:01:41;;;;;;;25.33;15.00;;;;;;;;;;5091047;28;20036;-88
2021/01/05 11:04:07;;;;;;;23.30;14.52;;;;;;;;;;5089644;28;20048;-86
2021/01/05 11:06:34;;;;;;;25.05;15.43;;;;;;;;;;5088061;28;20082;-88
2021/01/05 11:09:00;;;;;;;21.92;14.35;;;;;;;;;;5088925;28;20012;-86
2021/01/05 11:11:26;;;;;;;32.33;15.52;;;;;;;;;;5085844;28;20028;-90
2021/01/05 11:13:52;;;;;;;22.52;14.02;;;;;;;;;;5079676;28;20031;-87
2021/01/05 11:16:19;;;;;;;23.73;14.80;;;;;;;;;;5086403;28;20050;-86
2021/01/05 11:18:46;;;;;;;23.08;14.85;;;;;;;;;;5074330;28;20036;-88
2021/01/05 11:21:13;;;;;;;29.15;16.05;;;;;;;;;;5075709;28;20027;-87
2021/01/05 11:23:41;;;;;;;27.58;16.17;;;;;;;;;;5076295;28;20028;-86
2021/01/05 11:26:10;;;;;;;23.23;14.52;;;;;;;;;;5074691;28;20053;-88
2021/01/05 11:28:36;;;;;;;29.17;16.25;;;;;;;;;;5094981;28;20296;-85
2021/01/05 11:31:03;;;;;;;22.27;14.38;;;;;;;;;;5077665;28;20032;-87
2021/01/05 11:33:29;;;;;;;24.25;15.13;;;;;;;;;;5078670;28;20028;-87
2021/01/05 11:36:01;;;;;;;21.67;14.13;;;;;;;;;;5096196;28;20056;-85
2021/01/05 11:38:27;;;;;;;25.50;15.65;;;;;;;;;;5099441;28;20101;-87
2021/01/05 11:40:53;;;;;;;24.90;15.43;;;;;;;;;;5080247;28;20182;-88
2021/01/05 11:43:19;;;;;;;24.33;14.75;;;;;;;;;;5077178;28;20036;-85
2021/01/05 11:45:45;;;;;;;24.23;14.85;;;;;;;;;;5077735;28;20073;-88
2021/01/05 11:48:12;;;;;;;23.50;14.88;;;;;;;;;;5077684;28;20352;-87
2021/01/05 11:50:41;;;;;;;24.55;14.75;;;;;;;;;;5077404;28;20336;-87
2021/01/05 11:53:07;;;;;;;23.05;15.65;;;;;;;;;;5078132;28;20126;-87
2021/01/05 11:55:33;;;;;;;26.83;16.88;;;;;;;;;;5096649;28;20305;-86
2021/01/05 11:57:59;;;;;;;23.58;15.30;;;;;;;;;;5079646;28;20052;-86
2021/01/05 12:00:26;;;;;;;23.38;15.32;;;;;;;;;;5099678;28;20031;-87
2021/01/05 12:02:53;;;;;;;27.27;17.02;;;;;;;;;;5081342;28;20122;-88
2021/01/05 12:05:19;;;;;;;31.88;16.83;;;;;;;;;;5081697;28;20028;-87
2021/01/05 12:07:45;;;;;;;25.10;16.58;;;;;;;;;;5099154;28;20343;-86
2021/01/05 12:10:11;;;;;;;30.20;16.88;;;;;;;;;;5081626;28;20104;-86
2021/01/05 12:12:37;;;;;;;22.17;15.50;;;;;;;;;;5080971;28;20023;-90
2021/01/05 12:15:05;;;;;;;24.67;15.60;;;;;;;;;;5080724;28;20032;-88
2021/01/05 12:17:33;;;;;;;25.95;16.02;;;;;;;;;;5080376;28;20032;-90
2021/01/05 12:20:00;;;;;;;27.77;16.30;;;;;;;;;;5079127;28;20059;-88
2021/01/05 12:22:26;;;;;;;29.13;16.92;;;;;;;;;;5079597;28;20032;-86
2021/01/05 12:24:52;;;;;;;25.60;15.80;;;;;;;;;;5078316;28;20115;-88
2021/01/05 12:27:18;;;;;;;26.77;15.85;;;;;;;;;;5078840;28;20036;-87
2021/01/05 12:29:50;;;;;;;26.65;16.70;;;;;;;;;;5096862;28;20028;-86
2021/01/05 12:32:17;;;;;;;27.67;16.48;;;;;;;;;;5077866;28;20127;-87
2021/01/05 12:34:45;;;;;;;24.15;15.82;;;;;;;;;;5077258;28;20160;-87
2021/01/05 12:37:13;;;;;;;21.70;16.02;;;;;;;;;;5077786;28;20036;-89
2021/01/05 12:39:39;;;;;;;24.02;15.93;;;;;;;;;;5077695;28;20024;-89
2021/01/05 12:42:10;;;;;;;27.08;15.43;;;;;;;;;;5077970;28;20055;-88
2021/01/05 12:44:37;;;;;;;28.83;17.88;;;;;;;;;;5075813;28;20047;-87
2021/01/05 12:47:03;;;;;;;24.85;15.93;;;;;;;;;;5078372;28;20070;-87
2021/01/05 12:49:29;;;;;;;24.88;15.75;;;;;;;;;;5077741;28;20043;-88
2021/01/05 12:51:55;;;;;;;26.52;16.58;;;;;;;;;;5097288;28;20085;-88
2021/01/05 12:54:23;;;;;;;25.13;16.23;;;;;;;;;;5079371;28;20028;-86
2021/01/05 12:56:49;;;;;;;24.45;15.85;;;;;;;;;;5077188;28;20035;-88
2021/01/05 12:59:16;;;;;;;26.15;14.82;;;;;;;;;;5076971;28;20047;-88
2021/01/05 13:01:56;;;;;;;22.33;15.15;;;;;;;;;;5076169;28;20028;-87
2021/01/05 13:04:22;;;;;;;24.90;15.35;;;;;;;;;;5080060;28;20032;-89
2021/01/05 13:07:04;;;;;;;22.73;15.30;;;;;;;;;;5099567;28;20028;-89
2021/01/05 13:09:32;;;;;;;22.77;14.75;;;;;;;;;;5075750;28;20032;-88
2021/01/05 13:12:00;;;;;;;22.63;14.55;;;;;;;;;;5076555;28;20331;-87
2021/01/05 13:14:26;;;;;;;21.90;14.63;;;;;;;;;;5079794;28;20039;-92
2021/01/05 13:16:52;;;;;;;22.30;14.65;;;;;;;;;;5079651;28;20027;-89
2021/01/05 13:19:24;;;;;;;19.98;13.63;;;;;;;;;;5080243;28;20027;-88
2021/01/05 13:21:55;;;;;;;20.25;13.68;;;;;;;;;;5097991;28;20024;-87
2021/01/05 13:24:26;;;;;;;23.70;15.30;;;;;;;;;;5080843;28;20048;-90
2021/01/05 13:26:53;;;;;;;19.77;12.73;;;;;;;;;;5080512;28;20034;-90
2021/01/05 13:29:19;;;;;;;20.50;13.50;;;;;;;;;;5079698;28;20043;-88
2021/01/05 13:32:02;;;;;;;20.48;14.77;;;;;;;;;;5078991;28;20046;-89
2021/01/05 13:34:33;;;;;;;19.88;14.40;;;;;;;;;;5093645;28;20035;-89
2021/01/05 13:37:01;;;;;;;21.10;13.48;;;;;;;;;;5078881;28;20024;-88
2021/01/05 13:39:30;;;;;;;19.90;14.85;;;;;;;;;;5079738;28;20060;-87
2021/01/05 13:42:01;;;;;;;22.85;15.77;;;;;;;;;;5079584;28;20036;-88
2021/01/05 13:44:27;;;;;;;22.50;14.80;;;;;;;;;;5075250;28;20050;-88
2021/01/05 13:46:56;;;;;;;22.00;14.52;;;;;;;;;;5071726;28;20126;-89
2021/01/05 13:49:24;;;;;;;19.65;13.25;;;;;;;;;;5094089;28;20031;-86
2021/01/05 13:51:59;;;;;;;25.23;15.00;;;;;;;;;;5079508;28;20024;-90
2021/01/05 13:54:28;;;;;;;21.13;14.35;;;;;;;;;;5079935;28;20031;-87
2021/01/05 13:56:58;;;;;;;22.35;14.75;;;;;;;;;;5098536;28;20047;-87
2021/01/05 13:59:25;;;;;;;22.85;14.60;;;;;;;;;;5081416;28;20129;-89
2021/01/05 14:02:02;;;;;;;24.00;15.65;;;;;;;;;;5079750;28;20067;-88
2021/01/05 14:04:30;;;;;;;25.52;15.00;;;;;;;;;;5080118;28;20032;-89
2021/01/05 14:06:57;;;;;;;25.15;15.90;;;;;;;;;;5097022;28;20028;-87
2021/01/05 14:09:24;;;;;;;23.42;16.10;;;;;;;;;;5079948;28;20028;-88
2021/01/05 14:11:50;;;;;;;25.13;16.35;;;;;;;;;;5095973;28;20035;-87
2021/01/05 14:14:17;;;;;;;24.13;15.88;;;;;;;;;;5073946;28;20028;-87
2021/01/05 14:16:43;;;;;;;22.35;14.98;;;;;;;;;;5075514;28;20039;-86
2021/01/05 14:19:09;;;;;;;23.42;16.33;;;;;;;;;;5078176;28;20043;-88
2021/01/05 14:21:37;;;;;;;23.85;15.25;;;;;;;;;;5096694;28;20022;-87
2021/01/05 14:24:05;;;;;;;25.55;16.10;;;;;;;;;;5075454;28;20061;-87
2021/01/05 14:26:32;;;;;;;25.42;16.77;;;;;;;;;;5078417;28;20067;-88